Time;durP1;ratioP1;P1;durP2;ratioP2;P2;SDS_P1;SDS_P2;PMS_P1;PMS_P2;Temp;Humidity;BMP_temperature;BMP_pressure;BME280_temperature;BME280_humidity;BME280_pressure;Samples;Min_cycle;Max_cycle;Signal;HPM_P1;HPM_P2
2023/01/27 00:00:12;;;;;;;14.32;5.57;;;2.40;75.00;;;;;;4975426;28;87912;-73
2023/01/27 00:02:39;;;;;;;13.98;5.38;;;2.30;74.60;;;;;;4976916;28;88422;-72
2023/01/27 00:05:05;;;;;;;14.32;5.25;;;2.30;75.00;;;;;;4979737;28;87472;-73
2023/01/27 00:07:31;;;;;;;14.82;5.13;;;2.40;75.50;;;;;;4987503;28;89843;-72
2023/01/27 00:09:57;;;;;;;13.50;5.30;;;2.30;74.10;;;;;;4979246;28;87310;-74
2023/01/27 00:15:10;;;;;;;13.30;4.88;;;2.20;75.00;;;;;;4988450;28;87354;-73
2023/01/27 00:17:36;;;;;;;15.98;5.60;;;2.20;74.70;;;;;;4979866;28;88039;-73
2023/01/27 00:20:03;;;;;;;16.77;5.05;;;2.20;74.90;;;;;;4977951;28;87167;-73
2023/01/27 00:25:13;;;;;;;13.93;5.18;;;2.10;75.00;;;;;;4984989;28;87402;-75
2023/01/27 00:27:39;;;;;;;14.10;5.47;;;2.10;75.50;;;;;;4987102;28;89060;-74
2023/01/27 00:30:06;;;;;;;14.43;5.40;;;2.10;75.40;;;;;;4978667;28;88545;-74
2023/01/27 00:35:16;;;;;;;12.48;4.97;;;2.10;76.20;;;;;;4976371;28;88599;-72
2023/01/27 00:37:43;;;;;;;14.63;5.22;;;2.10;74.60;;;;;;4974344;28;87578;-73
2023/01/27 00:40:11;;;;;;;12.40;4.55;;;2.10;75.20;;;;;;4984739;28;87777;-74
2023/01/27 00:42:36;;;;;;;15.27;5.70;;;2.10;75.20;;;;;;4987978;28;87323;-74
2023/01/27 00:47:47;;;;;;;14.38;4.63;;;2.10;75.80;;;;;;4969634;28;87770;-73
2023/01/27 00:50:14;;;;;;;14.10;5.15;;;2.10;75.30;;;;;;4979849;28;88485;-73
2023/01/27 00:52:39;;;;;;;14.13;5.03;;;2.20;75.60;;;;;;4977699;28;88511;-73
2023/01/27 00:55:06;;;;;;;12.60;4.90;;;2.20;75.70;;;;;;4969207;28;87465;-74
2023/01/27 00:57:32;;;;;;;14.07;5.43;;;2.20;75.40;;;;;;4990485;28;88180;-72
2023/01/27 00:59:58;;;;;;;14.27;4.85;;;2.20;75.50;;;;;;4977736;28;87837;-73
2023/01/27 01:02:24;;;;;;;12.27;5.00;;;2.20;76.10;;;;;;4977243;28;87420;-72
2023/01/27 01:04:49;;;;;;;13.73;5.30;;;2.20;75.40;;;;;;4987904;28;87164;-73
2023/01/27 01:07:15;;;;;;;15.52;5.05;;;2.30;74.90;;;;;;4964383;28;87718;-73
2023/01/27 01:09:41;;;;;;;12.90;5.00;;;2.40;74.60;;;;;;4976375;28;87823;-73
2023/01/27 01:12:06;;;;;;;13.40;4.28;;;2.40;74.70;;;;;;4975001;28;87114;-72
2023/01/27 01:14:32;;;;;;;14.27;5.15;;;2.30;74.30;;;;;;4979968;28;87367;-73
2023/01/27 01:16:58;;;;;;;14.05;4.68;;;2.30;74.80;;;;;;4978205;28;88674;-73
2023/01/27 01:19:23;;;;;;;14.55;5.50;;;2.30;74.70;;;;;;4977086;28;88926;-71
2023/01/27 01:21:49;;;;;;;13.77;5.07;;;2.30;74.10;;;;;;4977571;28;88819;-73
2023/01/27 01:24:15;;;;;;;14.43;4.85;;;2.20;74.50;;;;;;4983453;28;87548;-73
2023/01/27 01:26:40;;;;;;;13.38;4.72;;;2.20;74.90;;;;;;4998084;28;88720;-73
2023/01/27 01:29:06;;;;;;;14.48;5.53;;;2.20;74.50;;;;;;4975531;28;87572;-73
2023/01/27 01:31:32;;;;;;;13.38;5.45;;;2.10;74.70;;;;;;4978946;28;88844;-72
2023/01/27 01:33:57;;;;;;;12.90;4.57;;;2.10;74.50;;;;;;4986360;28;86730;-72
2023/01/27 01:36:23;;;;;;;15.05;5.22;;;2.10;74.60;;;;;;4990475;28;88171;-73
2023/01/27 01:38:55;;;;;;;14.00;4.95;;;2.10;74.70;;;;;;4976088;28;87411;-73
2023/01/27 01:41:21;;;;;;;14.13;4.97;;;2.10;75.00;;;;;;4978090;28;88370;-73
2023/01/27 01:43:48;;;;;;;14.10;5.35;;;2.10;74.90;;;;;;4978190;28;87517;-73
2023/01/27 01:46:14;;;;;;;13.07;4.88;;;2.10;74.80;;;;;;4974583;28;87596;-73
2023/01/27 01:48:58;;;;;;;13.88;5.20;;;2.20;74.60;;;;;;4977076;28;89238;-72
2023/01/27 01:51:31;;;;;;;12.73;5.10;;;2.10;74.20;;;;;;4973011;28;87559;-72
2023/01/27 01:54:03;;;;;;;13.23;4.80;;;2.00;74.40;;;;;;4984649;28;87388;-73
2023/01/27 01:56:41;;;;;;;16.85;5.70;;;2.00;74.70;;;;;;4975798;28;87634;-73
2023/01/27 01:59:10;;;;;;;;;;;2.00;75.20;;;;;;4977844;28;87750;-72
2023/01/27 02:01:36;;;;;;;12.90;4.43;;;2.00;74.90;;;;;;4993687;28;87092;-72
2023/01/27 02:04:07;;;;;;;14.82;5.13;;;2.00;74.50;;;;;;4991409;28;87376;-74
2023/01/27 02:06:51;;;;;;;15.25;5.40;;;2.00;74.50;;;;;;4974571;28;89092;-74
2023/01/27 02:09:19;;;;;;;13.82;4.90;;;1.90;74.60;;;;;;4978811;28;88393;-73
2023/01/27 02:11:45;;;;;;;13.35;4.80;;;2.00;75.10;;;;;;4989637;28;87782;-73
2023/01/27 02:14:13;;;;;;;15.32;5.60;;;2.10;74.30;;;;;;4978908;28;88155;-74
2023/01/27 02:16:39;;;;;;;14.73;5.13;;;2.00;73.30;;;;;;4976909;28;87338;-75
2023/01/27 02:19:08;;;;;;;13.98;5.20;;;1.90;74.30;;;;;;4976249;28;88902;-74
2023/01/27 02:21:34;;;;;;;14.60;4.88;;;2.00;74.10;;;;;;4980592;28;87599;-73
2023/01/27 02:24:05;;;;;;;11.63;4.20;;;2.00;73.60;;;;;;4974851;28;86592;-73
2023/01/27 02:26:32;;;;;;;14.07;5.00;;;1.90;74.40;;;;;;4977448;28;87950;-74
2023/01/27 02:29:02;;;;;;;12.73;4.80;;;1.90;74.80;;;;;;4974134;28;87418;-74
2023/01/27 02:31:28;;;;;;;14.13;5.20;;;1.90;73.80;;;;;;4977459;28;90188;-74
2023/01/27 02:33:58;;;;;;;12.88;4.80;;;1.90;73.80;;;;;;4980271;28;87192;-74
2023/01/27 02:36:28;;;;;;;13.82;4.70;;;2.00;74.20;;;;;;4970018;28;88299;-73
2023/01/27 02:38:55;;;;;;;11.60;4.50;;;2.00;74.00;;;;;;4978782;28;87566;-74
2023/01/27 02:41:36;;;;;;;13.90;4.88;;;2.10;74.00;;;;;;4978183;28;87525;-73
2023/01/27 02:44:03;;;;;;;13.88;4.90;;;2.10;73.80;;;;;;4977936;28;87268;-73
2023/01/27 02:46:29;;;;;;;14.57;4.80;;;2.20;73.90;;;;;;4977815;28;87757;-72
2023/01/27 02:48:55;;;;;;;13.73;4.95;;;2.20;73.40;;;;;;4973503;28;87879;-73
2023/01/27 02:51:20;;;;;;;12.32;5.18;;;2.20;73.40;;;;;;4975069;28;87244;-73
2023/01/27 02:53:46;;;;;;;15.65;5.57;;;2.20;73.30;;;;;;4974525;28;87211;-74
2023/01/27 02:56:12;;;;;;;13.60;4.82;;;2.30;73.40;;;;;;4976930;28;88387;-73
2023/01/27 02:58:38;;;;;;;17.42;4.95;;;2.30;72.70;;;;;;4969285;28;88345;-73
2023/01/27 03:01:04;;;;;;;12.40;4.88;;;2.30;73.00;;;;;;4985152;28;87376;-73
2023/01/27 03:03:30;;;;;;;11.93;4.88;;;2.20;72.60;;;;;;4977734;28;87352;-73
2023/01/27 03:05:55;;;;;;;14.05;4.97;;;2.10;73.20;;;;;;4991397;28;89066;-73
2023/01/27 03:08:21;;;;;;;13.13;5.32;;;2.10;73.40;;;;;;4992540;28;87617;-74
2023/01/27 03:10:51;;;;;;;14.02;5.30;;;2.10;73.60;;;;;;4976653;28;88924;-74
2023/01/27 03:13:21;;;;;;;12.43;4.90;;;2.10;73.60;;;;;;4977541;28;87790;-74
2023/01/27 03:18:31;;;;;;;13.65;4.88;;;2.00;73.90;;;;;;4981602;28;87152;-72
2023/01/27 03:21:02;;;;;;;13.30;4.95;;;2.00;73.50;;;;;;4980659;28;88448;-72
2023/01/27 03:23:28;;;;;;;11.80;4.85;;;2.00;73.50;;;;;;4977139;28;87295;-73
2023/01/27 03:25:54;;;;;;;15.50;5.25;;;2.00;73.60;;;;;;4975858;28;87986;-73
2023/01/27 03:28:20;;;;;;;10.85;4.78;;;2.00;73.50;;;;;;4981597;28;87410;-73
2023/01/27 03:30:45;;;;;;;13.82;5.10;;;1.90;74.00;;;;;;4995961;28;87199;-73
2023/01/27 03:33:11;;;;;;;11.90;4.40;;;1.90;74.50;;;;;;4975223;28;87869;-72
2023/01/27 03:35:37;;;;;;;13.85;5.13;;;1.90;74.60;;;;;;4974938;28;87492;-71
2023/01/27 03:46:24;;;;;;;12.32;4.82;;;1.80;74.30;;;;;;4985239;28;88625;-71
2023/01/27 03:48:52;;;;;;;14.02;4.75;;;1.80;74.00;;;;;;4975127;28;88866;-72
2023/01/27 03:51:20;;;;;;;13.23;4.20;;;1.80;74.60;;;;;;4962192;28;88225;-71
2023/01/27 03:53:46;;;;;;;11.75;4.30;;;1.70;74.20;;;;;;4970899;28;87314;-72
2023/01/27 03:56:12;;;;;;;13.43;4.75;;;1.70;74.20;;;;;;4993883;28;88638;-72
2023/01/27 03:58:38;;;;;;;13.15;5.07;;;1.70;74.70;;;;;;4977390;28;87186;-72
2023/01/27 04:01:12;;;;;;;12.43;4.68;;;1.80;74.60;;;;;;4974900;28;88057;-72
2023/01/27 04:09:18;;;;;;;15.98;5.03;;;1.80;75.00;;;;;;4968068;28;87398;-70
2023/01/27 04:11:57;;;;;;;13.18;4.38;;;1.70;74.80;;;;;;4978207;28;88338;-72
2023/01/27 04:14:24;;;;;;;18.90;4.22;;;1.60;74.90;;;;;;4978033;28;88147;-72
2023/01/27 04:16:52;;;;;;;14.38;4.85;;;1.60;74.90;;;;;;4967707;28;88894;-72
2023/01/27 04:19:18;;;;;;;11.98;4.35;;;1.50;74.80;;;;;;4972161;28;88042;-72
2023/01/27 04:21:44;;;;;;;12.30;4.10;;;1.60;75.10;;;;;;4963923;28;89286;-73
2023/01/27 04:24:24;;;;;;;12.35;4.82;;;1.60;75.50;;;;;;4976184;28;87508;-73
2023/01/27 04:26:53;;;;;;;13.65;4.93;;;1.50;76.10;;;;;;4976415;28;87434;-71
2023/01/27 04:29:20;;;;;;;12.30;4.45;;;1.50;76.40;;;;;;4973605;28;87809;-72
2023/01/27 04:31:45;;;;;;;15.38;4.65;;;1.50;76.60;;;;;;4991622;28;87335;-71
2023/01/27 04:34:11;;;;;;;11.93;4.50;;;1.40;76.60;;;;;;4987394;28;87338;-71
2023/01/27 04:36:39;;;;;;;11.70;4.50;;;1.30;76.80;;;;;;4975029;28;88346;-71
2023/01/27 04:39:04;;;;;;;14.45;5.15;;;1.30;76.80;;;;;;4977168;28;88362;-71
2023/01/27 04:41:30;;;;;;;11.70;4.78;;;1.20;77.00;;;;;;4986010;28;87483;-71
2023/01/27 04:43:56;;;;;;;13.98;4.82;;;1.20;77.10;;;;;;4967611;28;87486;-70
2023/01/27 04:46:21;;;;;;;13.40;4.88;;;1.20;77.20;;;;;;4970400;28;89910;-71
2023/01/27 04:48:47;;;;;;;14.70;4.68;;;1.20;77.20;;;;;;4984282;28;87993;-71
2023/01/27 04:51:13;;;;;;;18.08;4.68;;;1.10;77.70;;;;;;4976696;28;89013;-71
2023/01/27 04:53:38;;;;;;;12.43;4.85;;;1.10;77.80;;;;;;4975624;28;86919;-72
2023/01/27 04:56:06;;;;;;;11.25;4.50;;;1.20;78.20;;;;;;4979514;28;88172;-73
2023/01/27 04:58:32;;;;;;;12.20;4.22;;;1.00;78.30;;;;;;4978867;28;89789;-73
2023/01/27 05:00:58;;;;;;;13.05;4.70;;;1.00;78.50;;;;;;4988528;28;88548;-70
2023/01/27 05:03:24;;;;;;;11.65;4.70;;;1.10;78.30;;;;;;4986991;28;87275;-70
2023/01/27 05:05:50;;;;;;;12.77;4.25;;;0.90;78.60;;;;;;4997288;28;91524;-72
2023/01/27 05:08:16;;;;;;;13.45;4.53;;;0.80;78.30;;;;;;4997011;28;90087;-72
2023/01/27 05:10:44;;;;;;;12.98;5.03;;;0.80;78.60;;;;;;4979005;28;87286;-72
2023/01/27 05:13:10;;;;;;;13.05;4.63;;;0.80;79.10;;;;;;4984862;28;87457;-72
2023/01/27 05:15:35;;;;;;;11.05;4.07;;;0.80;78.80;;;;;;4979037;28;90516;-72
2023/01/27 05:18:02;;;;;;;12.07;4.72;;;0.70;79.70;;;;;;4979703;28;87735;-72
2023/01/27 05:20:27;;;;;;;9.68;3.22;;;0.70;79.30;;;;;;4987940;28;87437;-73
2023/01/27 05:23:33;;;;;;;11.70;3.88;;;0.70;79.20;;;;;;4971108;28;87376;-70
2023/01/27 05:25:45;;;;;;;13.02;4.90;;;0.70;79.40;;;;;;4966205;28;89398;-72
2023/01/27 05:28:11;;;;;;;12.02;4.55;;;0.70;78.80;;;;;;4971408;28;92263;-72
2023/01/27 05:30:37;;;;;;;13.07;4.22;;;0.80;78.60;;;;;;4977906;28;87375;-72
2023/01/27 05:33:03;;;;;;;16.63;3.78;;;0.80;78.70;;;;;;4977349;28;87976;-72
2023/01/27 05:35:32;;;;;;;14.73;4.43;;;0.90;78.40;;;;;;4977394;28;88306;-72
2023/01/27 05:37:57;;;;;;;15.52;4.20;;;1.00;77.40;;;;;;4975216;28;91369;-72
2023/01/27 05:40:23;;;;;;;11.07;3.95;;;1.00;77.10;;;;;;4980128;28;87417;-71
2023/01/27 05:42:53;;;;;;;11.90;4.00;;;1.10;77.10;;;;;;4971090;28;86544;-73
2023/01/27 05:45:19;;;;;;;13.30;3.83;;;1.20;76.90;;;;;;4973448;28;90080;-73
2023/01/27 05:47:51;;;;;;;13.40;4.53;;;1.20;77.00;;;;;;4972228;28;92014;-72
2023/01/27 05:50:17;;;;;;;12.38;4.22;;;1.20;77.10;;;;;;4969120;28;88918;-71
2023/01/27 05:52:43;;;;;;;12.68;4.20;;;1.20;77.20;;;;;;4980707;28;87360;-72
2023/01/27 05:55:09;;;;;;;13.70;4.28;;;1.20;77.50;;;;;;4976692;28;87813;-71
2023/01/27 05:57:35;;;;;;;11.18;4.05;;;1.20;77.30;;;;;;4978720;28;88157;-70
2023/01/27 06:00:01;;;;;;;12.25;4.38;;;1.20;76.80;;;;;;4985374;28;87611;-71
2023/01/27 06:02:27;;;;;;;11.50;4.03;;;1.20;76.50;;;;;;4974635;28;87934;-71
2023/01/27 06:04:52;;;;;;;12.82;4.43;;;1.20;76.40;;;;;;4970679;28;91324;-69
2023/01/27 06:07:18;;;;;;;12.13;4.07;;;1.30;76.40;;;;;;4998937;28;87520;-71
2023/01/27 06:09:44;;;;;;;9.43;4.45;;;1.20;76.10;;;;;;4980743;28;87454;-70
2023/01/27 06:12:09;;;;;;;17.42;6.60;;;1.30;76.20;;;;;;4980358;28;88620;-71
2023/01/27 06:14:35;;;;;;;22.48;8.63;;;1.20;76.20;;;;;;4985672;28;90623;-70
2023/01/27 06:17:01;;;;;;;19.02;7.22;;;1.30;76.00;;;;;;4969086;28;89210;-70
2023/01/27 06:19:27;;;;;;;14.82;5.70;;;1.30;76.00;;;;;;4969686;28;87325;-70
2023/01/27 06:21:53;;;;;;;17.88;5.22;;;1.30;76.00;;;;;;4976134;28;87437;-70
2023/01/27 06:24:18;;;;;;;16.98;5.57;;;1.30;77.00;;;;;;4974656;28;91221;-70
2023/01/27 06:26:44;;;;;;;13.55;5.50;;;1.30;76.20;;;;;;4981212;28;89042;-70
2023/01/27 06:29:10;;;;;;;15.70;5.35;;;1.40;76.00;;;;;;4976923;28;87454;-70
2023/01/27 06:31:36;;;;;;;16.08;4.88;;;1.50;76.10;;;;;;4975354;28;86519;-70
2023/01/27 06:34:02;;;;;;;14.57;4.95;;;1.40;76.40;;;;;;4975499;28;87732;-71
2023/01/27 06:36:28;;;;;;;13.55;6.00;;;1.40;76.50;;;;;;4974973;28;89803;-70
2023/01/27 06:38:54;;;;;;;16.98;6.43;;;1.40;76.60;;;;;;4984037;28;88287;-69
2023/01/27 06:41:19;;;;;;;16.65;6.60;;;1.40;76.30;;;;;;4974850;28;87196;-70
2023/01/27 06:43:45;;;;;;;18.52;6.47;;;1.40;76.60;;;;;;4990595;28;91027;-70
2023/01/27 06:46:11;;;;;;;18.33;6.10;;;1.40;76.50;;;;;;4976461;28;91255;-71
2023/01/27 06:48:37;;;;;;;17.92;6.35;;;1.50;76.20;;;;;;4975958;28;87532;-70
2023/01/27 06:51:03;;;;;;;16.05;5.30;;;1.50;76.40;;;;;;4975487;28;87185;-70
2023/01/27 06:53:30;;;;;;;15.82;5.63;;;1.50;76.50;;;;;;4971341;28;87582;-68
2023/01/27 06:55:57;;;;;;;12.27;4.72;;;1.50;76.50;;;;;;4972205;28;87380;-70
2023/01/27 06:58:24;;;;;;;16.67;5.15;;;1.50;76.30;;;;;;4972589;28;87449;-71
2023/01/27 07:00:50;;;;;;;13.23;4.68;;;1.50;76.70;;;;;;4970414;28;87678;-72
2023/01/27 07:03:16;;;;;;;12.63;4.97;;;1.50;76.60;;;;;;4993445;28;89056;-70
2023/01/27 07:05:41;;;;;;;14.82;5.35;;;1.40;76.70;;;;;;4973810;28;88917;-69
2023/01/27 07:08:07;;;;;;;12.32;4.55;;;1.50;76.60;;;;;;4968145;28;87487;-69
2023/01/27 07:10:33;;;;;;;14.27;5.00;;;1.60;76.50;;;;;;4963577;28;87445;-70
2023/01/27 07:13:10;;;;;;;11.45;4.72;;;1.60;75.90;;;;;;4979380;28;87595;-71
2023/01/27 07:15:36;;;;;;;13.05;4.60;;;1.70;76.00;;;;;;4969538;28;87990;-69
2023/01/27 07:18:03;;;;;;;19.20;5.57;;;1.70;75.70;;;;;;4974808;28;87484;-71
2023/01/27 07:20:29;;;;;;;13.32;5.35;;;1.80;75.80;;;;;;4961419;28;86950;-68
2023/01/27 07:22:59;;;;;;;16.15;6.22;;;1.80;75.60;;;;;;4965919;28;87685;-69
2023/01/27 07:25:25;;;;;;;17.25;5.88;;;1.90;75.40;;;;;;4973320;28;90600;-71
2023/01/27 07:27:51;;;;;;;14.75;5.30;;;1.80;75.70;;;;;;4966189;28;89999;-70
2023/01/27 07:30:18;;;;;;;16.67;5.55;;;1.80;75.50;;;;;;4971827;28;87250;-69
2023/01/27 07:32:43;;;;;;;12.27;4.80;;;1.80;75.80;;;;;;4969118;28;88378;-68
2023/01/27 07:35:09;;;;;;;11.45;4.60;;;1.90;75.20;;;;;;4977518;28;87779;-71
2023/01/27 07:37:35;;;;;;;14.23;4.57;;;1.90;75.00;;;;;;4969329;28;88897;-69
2023/01/27 07:40:02;;;;;;;13.85;4.45;;;1.90;75.30;;;;;;4961444;28;88427;-69
2023/01/27 07:42:28;;;;;;;11.25;4.18;;;1.90;75.10;;;;;;4977188;28;87660;-68
2023/01/27 07:44:53;;;;;;;12.95;4.65;;;2.00;74.80;;;;;;4973858;28;88472;-70
2023/01/27 07:47:19;;;;;;;15.00;5.00;;;2.00;74.80;;;;;;4975814;28;87456;-71
2023/01/27 07:49:45;;;;;;;13.93;4.80;;;2.00;74.60;;;;;;4977214;28;87300;-69
2023/01/27 07:52:11;;;;;;;15.10;4.57;;;2.10;74.70;;;;;;4973435;28;89501;-71
2023/01/27 07:54:36;;;;;;;16.35;6.18;;;2.00;74.30;;;;;;4978659;28;89313;-69
2023/01/27 07:57:02;;;;;;;15.25;5.20;;;2.00;74.50;;;;;;4988006;28;87588;-70
2023/01/27 07:59:28;;;;;;;15.43;5.38;;;2.00;74.80;;;;;;4989333;28;87637;-70
2023/01/27 08:01:53;;;;;;;16.23;5.50;;;2.10;74.80;;;;;;4977716;28;87777;-72
2023/01/27 08:04:19;;;;;;;13.43;5.20;;;2.20;74.20;;;;;;4979312;28;87727;-72
2023/01/27 08:06:45;;;;;;;14.02;5.22;;;2.30;73.60;;;;;;4982958;28;87497;-71
2023/01/27 08:09:11;;;;;;;11.95;4.85;;;2.60;73.50;;;;;;4977826;28;86767;-72
2023/01/27 08:11:36;;;;;;;12.98;5.25;;;2.80;72.50;;;;;;4978351;28;88275;-71
2023/01/27 08:14:02;;;;;;;12.90;5.05;;;3.00;72.90;;;;;;4984859;28;87955;-71
2023/01/27 08:16:28;;;;;;;14.25;5.47;;;3.50;71.70;;;;;;4985849;28;88252;-72
2023/01/27 08:18:54;;;;;;;11.82;5.13;;;3.80;69.80;;;;;;4982074;28;88176;-70
2023/01/27 08:21:20;;;;;;;14.65;4.72;;;3.90;69.00;;;;;;4985357;28;87788;-71
2023/01/27 08:23:46;;;;;;;15.13;4.63;;;3.90;68.90;;;;;;4980479;28;88715;-68
2023/01/27 08:26:11;;;;;;;14.23;5.28;;;3.90;69.20;;;;;;4981844;28;87449;-68
2023/01/27 08:28:38;;;;;;;12.65;5.28;;;3.90;69.10;;;;;;4976626;28;88218;-70
2023/01/27 08:31:13;;;;;;;14.50;5.72;;;3.90;69.50;;;;;;4975153;28;87207;-70
2023/01/27 08:33:41;;;;;;;13.40;5.32;;;3.90;69.90;;;;;;4975429;28;87954;-69
2023/01/27 08:36:10;;;;;;;14.20;5.45;;;4.00;69.90;;;;;;4973111;28;87460;-70
2023/01/27 08:38:36;;;;;;;13.32;5.20;;;4.00;69.70;;;;;;4973914;28;88284;-72
2023/01/27 08:41:13;;;;;;;18.15;6.13;;;4.00;69.20;;;;;;4971410;28;90040;-70
2023/01/27 08:43:39;;;;;;;14.40;5.68;;;4.00;70.50;;;;;;4981127;28;88452;-70
2023/01/27 08:46:05;;;;;;;15.30;5.72;;;4.10;71.10;;;;;;4979533;28;87351;-71
2023/01/27 08:48:32;;;;;;;15.32;5.80;;;4.10;70.90;;;;;;4978761;28;87501;-69
2023/01/27 08:50:59;;;;;;;12.02;5.00;;;4.00;70.90;;;;;;4978474;28;87944;-73
2023/01/27 08:53:26;;;;;;;14.45;5.57;;;4.10;71.60;;;;;;4978798;28;87766;-69
2023/01/27 08:55:54;;;;;;;12.10;5.20;;;4.20;71.60;;;;;;4989796;28;87069;-68
2023/01/27 08:58:21;;;;;;;12.95;5.53;;;4.70;70.90;;;;;;4997659;28;86647;-69
2023/01/27 09:00:47;;;;;;;13.45;5.55;;;4.70;70.70;;;;;;4992085;28;87783;-71
2023/01/27 09:03:12;;;;;;;25.90;5.78;;;4.50;70.60;;;;;;4979447;28;88599;-68
2023/01/27 09:05:39;;;;;;;16.30;5.30;;;4.60;69.60;;;;;;4974397;28;88429;-71
2023/01/27 09:08:06;;;;;;;14.43;5.00;;;4.60;69.70;;;;;;4978241;28;87554;-71
2023/01/27 09:10:35;;;;;;;13.45;5.82;;;4.80;69.40;;;;;;4977932;28;87676;-69
2023/01/27 09:13:00;;;;;;;10.65;4.53;;;5.00;69.60;;;;;;4996589;28;87620;-69
2023/01/27 09:15:26;;;;;;;12.43;4.65;;;5.50;68.90;;;;;;4990902;28;87352;-71
2023/01/27 09:17:52;;;;;;;14.60;5.57;;;5.80;67.90;;;;;;4979522;28;87577;-70
2023/01/27 09:20:17;;;;;;;14.02;5.65;;;5.90;67.40;;;;;;4979605;28;87591;-71
2023/01/27 09:22:43;;;;;;;15.80;5.50;;;6.20;64.60;;;;;;4981720;28;87741;-71
2023/01/27 09:25:15;;;;;;;11.57;5.45;;;6.60;65.10;;;;;;4979145;28;88746;-72
2023/01/27 09:27:41;;;;;;;12.00;4.88;;;6.90;63.10;;;;;;4979238;28;87711;-72
2023/01/27 09:30:12;;;;;;;10.50;4.80;;;7.00;61.70;;;;;;4978546;28;88617;-71
2023/01/27 09:32:38;;;;;;;10.05;4.60;;;7.10;61.60;;;;;;4979187;28;89436;-73
2023/01/27 09:35:04;;;;;;;14.07;4.28;;;7.40;61.00;;;;;;4974205;28;87371;-72
2023/01/27 09:37:32;;;;;;;16.95;5.10;;;7.30;61.60;;;;;;4976763;28;87272;-71
2023/01/27 09:40:02;;;;;;;9.35;4.40;;;6.90;61.40;;;;;;4979093;28;88789;-72
2023/01/27 09:42:54;;;;;;;9.38;4.15;;;6.50;62.30;;;;;;4975100;28;87614;-70
2023/01/27 09:45:35;;;;;;;8.40;3.95;;;6.10;63.20;;;;;;4971275;28;87079;-70
2023/01/27 09:48:31;;;;;;;11.20;3.80;;;5.70;64.20;;;;;;4972941;28;88165;-68
2023/01/27 09:51:07;;;;;;;9.35;3.78;;;5.60;65.40;;;;;;4979589;28;87910;-70
2023/01/27 09:53:51;;;;;;;9.23;3.88;;;5.20;66.00;;;;;;4968731;28;88460;-71
2023/01/27 09:56:46;;;;;;;9.00;3.85;;;4.90;65.90;;;;;;4978598;28;88512;-72
2023/01/27 09:59:40;;;;;;;8.93;3.85;;;4.80;65.30;;;;;;4970444;28;87898;-69
2023/01/27 10:02:36;;;;;;;11.07;4.03;;;4.80;65.90;;;;;;4965605;28;88191;-71
2023/01/27 10:05:26;;;;;;;9.38;3.95;;;4.80;66.70;;;;;;4966130;28;88116;-72
2023/01/27 10:08:27;;;;;;;8.20;3.40;;;4.70;65.90;;;;;;4970586;28;88486;-69
2023/01/27 10:11:11;;;;;;;8.00;3.28;;;4.60;65.80;;;;;;4967499;28;87426;-69
2023/01/27 10:13:49;;;;;;;8.18;2.97;;;4.50;65.20;;;;;;4975199;28;89981;-69
2023/01/27 10:16:37;;;;;;;7.95;2.95;;;4.40;65.00;;;;;;4971922;28;89811;-71
2023/01/27 10:19:44;;;;;;;8.50;2.50;;;4.20;65.80;;;;;;4980897;28;87543;-70
2023/01/27 10:22:12;;;;;;;7.32;2.80;;;4.10;66.20;;;;;;4966325;28;87680;-70
2023/01/27 10:25:02;;;;;;;6.78;2.60;;;4.10;66.60;;;;;;4970381;28;92885;-69
2023/01/27 10:27:35;;;;;;;9.02;2.60;;;4.10;66.80;;;;;;4972184;28;89290;-69
2023/01/27 10:30:27;;;;;;;9.20;2.75;;;4.10;66.60;;;;;;4975748;28;87533;-69
2023/01/27 10:33:14;;;;;;;10.18;4.03;;;4.10;66.70;;;;;;4965216;28;87290;-69
2023/01/27 10:35:58;;;;;;;11.20;3.88;;;4.00;67.30;;;;;;4975342;28;87420;-69
2023/01/27 10:38:41;;;;;;;10.63;3.72;;;4.00;68.00;;;;;;4962012;28;89094;-71
2023/01/27 10:41:27;;;;;;;9.25;3.13;;;4.10;66.70;;;;;;4981930;28;87500;-68
2023/01/27 10:43:58;;;;;;;8.82;3.42;;;4.10;66.20;;;;;;4970991;28;86871;-69
2023/01/27 10:46:33;;;;;;;7.47;3.45;;;4.10;65.90;;;;;;4972665;28;88768;-70
2023/01/27 10:49:06;;;;;;;7.68;3.38;;;4.00;66.10;;;;;;4963807;28;88200;-70
2023/01/27 10:51:37;;;;;;;9.13;3.35;;;4.00;66.20;;;;;;4970471;28;88572;-68
2023/01/27 10:54:08;;;;;;;8.85;3.60;;;4.00;66.00;;;;;;4979910;28;87393;-70
2023/01/27 10:56:55;;;;;;;9.20;3.42;;;3.90;66.20;;;;;;4975626;28;87747;-69
2023/01/27 10:59:42;;;;;;;10.35;3.60;;;4.10;66.50;;;;;;4977932;28;87234;-71
2023/01/27 11:02:28;;;;;;;9.02;3.45;;;4.10;66.50;;;;;;4963484;28;88524;-71
2023/01/27 11:04:59;;;;;;;8.23;3.10;;;4.10;66.00;;;;;;4961712;28;87440;-71
2023/01/27 11:07:25;;;;;;;9.23;3.80;;;4.10;66.10;;;;;;4974511;28;88657;-70
2023/01/27 11:10:06;;;;;;;7.55;3.30;;;4.00;66.40;;;;;;4971029;28;88411;-71
2023/01/27 11:12:39;;;;;;;7.55;3.25;;;4.10;66.60;;;;;;4981429;28;88508;-70
2023/01/27 11:15:28;;;;;;;11.63;2.83;;;4.10;67.20;;;;;;4964374;28;87985;-71
2023/01/27 11:18:09;;;;;;;8.43;3.28;;;4.20;67.20;;;;;;4967555;28;89138;-69
2023/01/27 11:20:47;;;;;;;9.32;2.53;;;4.20;68.30;;;;;;4957516;28;89402;-73
2023/01/27 11:23:25;;;;;;;6.60;2.38;;;4.20;67.90;;;;;;4959072;28;88237;-69
2023/01/27 11:26:25;;;;;;;7.47;2.50;;;4.10;67.90;;;;;;4966128;28;87583;-70
2023/01/27 11:29:08;;;;;;;9.93;2.70;;;4.10;69.10;;;;;;4962992;28;89104;-71
2023/01/27 11:31:52;;;;;;;7.85;2.20;;;4.10;67.90;;;;;;4966976;28;88280;-71
2023/01/27 11:34:37;;;;;;;8.27;1.50;;;4.10;68.40;;;;;;4967089;28;89586;-71
2023/01/27 11:37:15;;;;;;;6.90;1.67;;;4.10;67.30;;;;;;4967186;28;88404;-73
2023/01/27 11:39:41;;;;;;;5.22;1.63;;;4.10;67.00;;;;;;4964602;28;87838;-71
2023/01/27 11:42:08;;;;;;;5.57;2.00;;;4.20;67.40;;;;;;4962777;28;88981;-73
2023/01/27 11:44:35;;;;;;;6.45;1.90;;;4.30;67.60;;;;;;4971268;28;88282;-71
2023/01/27 11:47:05;;;;;;;6.95;1.90;;;4.50;68.30;;;;;;4958290;28;87765;-70
2023/01/27 11:49:35;;;;;;;5.60;1.88;;;4.40;68.10;;;;;;4966813;28;89646;-72
2023/01/27 11:52:11;;;;;;;5.65;2.08;;;4.30;67.40;;;;;;4969772;28;87870;-70
2023/01/27 11:55:04;;;;;;;8.13;2.10;;;4.30;68.10;;;;;;4970630;28;87713;-70
2023/01/27 11:57:30;;;;;;;5.93;2.42;;;4.30;68.80;;;;;;4965419;28;87551;-71
2023/01/27 12:00:06;;;;;;;4.97;1.63;;;4.20;69.50;;;;;;4991915;28;88942;-70
2023/01/27 12:02:40;;;;;;;5.20;1.58;;;4.10;69.80;;;;;;4969562;28;87296;-73
2023/01/27 12:05:14;;;;;;;5.47;1.77;;;4.10;71.30;;;;;;4963311;28;88242;-71
2023/01/27 12:07:39;;;;;;;5.82;1.90;;;4.00;71.60;;;;;;4964863;28;87450;-70
2023/01/27 12:10:24;;;;;;;7.32;1.92;;;3.80;71.20;;;;;;4972192;28;89275;-70
2023/01/27 12:12:50;;;;;;;6.97;1.67;;;3.80;72.50;;;;;;4971988;28;88683;-71
2023/01/27 12:15:17;;;;;;;4.75;1.52;;;3.90;73.00;;;;;;4966919;28;87199;-71
2023/01/27 12:17:57;;;;;;;6.22;1.90;;;3.70;72.70;;;;;;4978075;28;87524;-72
2023/01/27 12:20:41;;;;;;;4.65;1.20;;;3.70;73.60;;;;;;4974534;28;88243;-71
2023/01/27 12:23:25;;;;;;;;;;;3.60;73.30;;;;;;4983929;28;87784;-72
2023/01/27 12:26:11;;;;;;;5.30;1.45;;;3.70;73.90;;;;;;4995247;28;87404;-70
2023/01/27 12:28:51;;;;;;;4.68;1.45;;;3.60;73.90;;;;;;4976011;28;86614;-71
2023/01/27 12:31:25;;;;;;;4.78;1.55;;;3.60;73.80;;;;;;4971406;28;88251;-71
2023/01/27 12:34:28;;;;;;;6.10;1.80;;;3.60;73.80;;;;;;4975581;28;87661;-70
2023/01/27 12:36:55;;;;;;;3.90;1.38;;;3.70;74.00;;;;;;4981277;28;88687;-70
2023/01/27 12:39:39;;;;;;;9.88;4.22;;;3.70;74.40;;;;;;4995684;28;87357;-70
2023/01/27 12:42:25;;;;;;;7.47;2.65;;;3.70;73.50;;;;;;4961111;28;88703;-69
2023/01/27 12:44:51;;;;;;;4.55;1.25;;;3.70;73.40;;;;;;4973807;28;87499;-72
2023/01/27 12:47:25;;;;;;;7.22;1.20;;;3.70;73.30;;;;;;4973677;28;87600;-69
2023/01/27 12:49:51;;;;;;;5.35;1.77;;;3.90;73.40;;;;;;4968442;28;87378;-70
2023/01/27 12:52:21;;;;;;;5.63;1.70;;;4.00;73.10;;;;;;4972550;28;88226;-69
2023/01/27 12:54:49;;;;;;;10.40;2.22;;;4.10;73.30;;;;;;4975077;28;87177;-69
2023/01/27 12:57:18;;;;;;;11.48;2.90;;;4.20;73.10;;;;;;4962952;28;88805;-69
2023/01/27 12:59:50;;;;;;;7.25;1.80;;;4.10;72.10;;;;;;4963904;28;89711;-67
2023/01/27 13:02:31;;;;;;;8.40;2.80;;;4.00;72.80;;;;;;4967322;28;88527;-71
2023/01/27 13:05:01;;;;;;;6.55;1.75;;;3.90;73.80;;;;;;4968603;28;88826;-72
2023/01/27 13:07:29;;;;;;;7.47;3.10;;;3.80;74.30;;;;;;4971686;28;87613;-70
2023/01/27 13:10:01;;;;;;;7.45;2.78;;;3.70;74.50;;;;;;4975754;28;88009;-70
2023/01/27 13:12:29;;;;;;;6.25;2.03;;;3.70;74.90;;;;;;4974260;28;87503;-69
2023/01/27 13:14:57;;;;;;;6.07;1.77;;;3.60;75.10;;;;;;4985311;28;88025;-68
2023/01/27 13:17:41;;;;;;;9.00;2.47;;;3.50;75.00;;;;;;4977510;28;87422;-69
2023/01/27 13:20:37;;;;;;;5.78;2.13;;;3.40;75.00;;;;;;4977521;28;88842;-67
2023/01/27 13:23:28;;;;;;;9.25;1.65;;;3.30;75.70;;;;;;4974058;28;88686;-69
2023/01/27 13:26:03;;;;;;;5.80;1.50;;;3.40;75.30;;;;;;4968861;28;87823;-69
2023/01/27 13:28:47;;;;;;;5.72;1.80;;;3.30;76.10;;;;;;4964986;28;88661;-69
2023/01/27 13:31:16;;;;;;;;;;;3.30;75.80;;;;;;4962165;28;87282;-71
2023/01/27 13:34:28;;;;;;;6.47;2.03;;;3.30;75.90;;;;;;4984820;28;87325;-68